Time;durP1;ratioP1;P1;durP2;ratioP2;P2;SDS_P1;SDS_P2;PMS_P1;PMS_P2;Temp;Humidity;BMP_temperature;BMP_pressure;BME280_temperature;BME280_humidity;BME280_pressure;Samples;Min_cycle;Max_cycle;Signal;HPM_P1;HPM_P2
2021/03/22 00:00:21;;;;;;;18.47;2.50;;;4.60;87.60;;;;;;5073411;28;20103;-74
2021/03/22 00:02:47;;;;;;;18.10;2.83;;;4.60;86.90;;;;;;5073248;28;20109;-74
2021/03/22 00:05:13;;;;;;;18.00;2.37;;;4.60;87.50;;;;;;5055993;28;20482;-74
2021/03/22 00:07:39;;;;;;;23.70;2.90;;;4.60;87.00;;;;;;5052081;28;20025;-74
2021/03/22 00:10:05;;;;;;;15.00;2.27;;;4.60;87.10;;;;;;5053331;28;20021;-74
2021/03/22 00:12:31;;;;;;;13.93;2.23;;;4.50;87.30;;;;;;5054394;28;20033;-74
2021/03/22 00:14:57;;;;;;;13.47;2.33;;;4.50;87.50;;;;;;5053289;28;20087;-74
2021/03/22 00:17:23;;;;;;;13.23;1.97;;;4.40;87.50;;;;;;5053223;28;20419;-72
2021/03/22 00:19:48;;;;;;;24.03;2.97;;;4.40;87.50;;;;;;5051637;28;20059;-72
2021/03/22 00:22:14;;;;;;;15.23;2.53;;;4.30;87.50;;;;;;5051965;28;20460;-73
2021/03/22 00:24:39;;;;;;;16.27;2.70;;;4.40;87.70;;;;;;5053181;28;20035;-73
2021/03/22 00:27:06;;;;;;;12.57;3.27;;;4.50;88.10;;;;;;5068428;28;20100;-73
2021/03/22 00:29:31;;;;;;;17.70;2.80;;;4.40;88.30;;;;;;5056333;28;20021;-74
2021/03/22 00:31:57;;;;;;;17.43;3.00;;;4.40;88.50;;;;;;5057250;28;20128;-73
2021/03/22 00:34:23;;;;;;;15.30;2.90;;;4.50;88.60;;;;;;5067207;28;20029;-76
2021/03/22 00:36:48;;;;;;;20.93;3.50;;;4.40;88.90;;;;;;5058756;28;20064;-77
2021/03/22 00:39:14;;;;;;;21.20;3.37;;;4.40;88.90;;;;;;5075739;28;20029;-76
2021/03/22 00:41:40;;;;;;;22.23;3.50;;;4.40;89.80;;;;;;5075555;28;20058;-77
2021/03/22 00:44:06;;;;;;;19.33;3.20;;;4.40;90.00;;;;;;5075232;28;20032;-77
2021/03/22 00:46:31;;;;;;;19.97;3.67;;;4.40;90.30;;;;;;5075342;28;20111;-77
2021/03/22 00:48:57;;;;;;;15.43;3.30;;;4.30;90.00;;;;;;5076308;28;20052;-77
2021/03/22 00:51:22;;;;;;;13.83;3.67;;;4.30;90.00;;;;;;5076976;28;20052;-77
2021/03/22 00:53:48;;;;;;;23.40;3.70;;;4.30;90.10;;;;;;5076114;28;20419;-77
2021/03/22 00:56:14;;;;;;;21.50;2.90;;;4.20;90.10;;;;;;5075185;28;20078;-77
2021/03/22 00:58:41;;;;;;;24.27;3.83;;;4.20;90.10;;;;;;5075201;28;20024;-77
2021/03/22 01:01:07;;;;;;;25.47;3.90;;;4.20;90.10;;;;;;5076392;28;20067;-77
2021/03/22 01:03:34;;;;;;;17.77;3.53;;;4.20;90.40;;;;;;5076503;28;20078;-77
2021/03/22 01:06:02;;;;;;;21.93;3.60;;;4.20;90.50;;;;;;5076643;28;20028;-76
2021/03/22 01:08:30;;;;;;;17.80;3.90;;;4.10;90.80;;;;;;5076628;28;20027;-77
2021/03/22 01:10:59;;;;;;;20.23;4.87;;;4.10;91.00;;;;;;5076286;28;20421;-76
2021/03/22 01:13:26;;;;;;;10.17;3.60;;;4.10;91.20;;;;;;5076197;28;20025;-76
2021/03/22 01:15:52;;;;;;;15.17;3.93;;;4.10;90.90;;;;;;5076097;28;20027;-77
2021/03/22 01:18:25;;;;;;;19.27;4.37;;;4.10;91.20;;;;;;5075018;28;20491;-77
2021/03/22 01:20:57;;;;;;;26.88;4.05;;;4.00;91.20;;;;;;5074933;28;20027;-77
2021/03/22 01:23:23;;;;;;;18.20;4.93;;;4.00;91.00;;;;;;5075826;28;20021;-77
2021/03/22 01:25:49;;;;;;;18.77;3.60;;;4.00;91.10;;;;;;5076374;28;20029;-77
2021/03/22 01:28:18;;;;;;;22.93;5.37;;;4.00;91.20;;;;;;5060274;28;20029;-77
2021/03/22 01:30:49;;;;;;;26.50;5.00;;;4.00;91.60;;;;;;5055786;28;20017;-76
2021/03/22 01:33:17;;;;;;;23.83;4.17;;;4.00;91.50;;;;;;5056383;28;20349;-77
2021/03/22 01:35:43;;;;;;;17.50;3.73;;;4.00;91.60;;;;;;5054553;28;20021;-77
2021/03/22 01:38:09;;;;;;;21.37;5.47;;;4.00;91.90;;;;;;5054456;28;20029;-76
2021/03/22 01:40:35;;;;;;;21.10;4.43;;;3.90;92.10;;;;;;5056631;28;20014;-77
2021/03/22 01:43:10;;;;;;;16.63;4.10;;;4.00;92.20;;;;;;5075466;28;20075;-77
2021/03/22 01:45:35;;;;;;;23.57;4.93;;;4.00;92.20;;;;;;5076078;28;20094;-77
2021/03/22 01:48:01;;;;;;;21.80;4.60;;;4.00;92.00;;;;;;5074261;28;20436;-77
2021/03/22 01:50:29;;;;;;;17.20;3.93;;;3.90;91.90;;;;;;5066057;28;20037;-76
2021/03/22 01:52:57;;;;;;;18.43;4.30;;;4.00;91.90;;;;;;5072027;28;20069;-76
2021/03/22 01:55:24;;;;;;;20.53;4.00;;;3.90;92.10;;;;;;5072672;28;20107;-77
2021/03/22 01:57:50;;;;;;;16.60;4.00;;;3.90;92.10;;;;;;5069659;28;20537;-76
2021/03/22 02:00:33;;;;;;;23.53;5.27;;;3.90;92.10;;;;;;5067681;28;20024;-77
2021/03/22 02:03:06;;;;;;;19.57;4.20;;;3.90;92.30;;;;;;5074760;28;20021;-76
2021/03/22 02:05:34;;;;;;;23.02;5.35;;;3.80;92.50;;;;;;5074808;28;20024;-76
2021/03/22 02:08:13;;;;;;;22.50;4.43;;;3.80;92.50;;;;;;5058800;28;20060;-76
2021/03/22 02:10:40;;;;;;;22.17;4.90;;;3.80;92.60;;;;;;5054853;28;20028;-77
2021/03/22 02:13:07;;;;;;;16.77;4.20;;;3.80;92.40;;;;;;5054702;28;20033;-77
2021/03/22 02:15:34;;;;;;;24.13;4.13;;;3.80;92.40;;;;;;5053510;28;20487;-77
2021/03/22 02:18:23;;;;;;;16.77;3.93;;;3.70;92.20;;;;;;5053301;28;20033;-76
2021/03/22 02:21:13;;;;;;;23.57;5.33;;;3.70;92.30;;;;;;5057985;28;20029;-76
2021/03/22 02:24:16;;;;;;;24.10;4.27;;;3.70;92.50;;;;;;5073059;28;20028;-76
2021/03/22 02:27:14;;;;;;;20.53;5.00;;;3.70;92.40;;;;;;5072566;28;20187;-76
2021/03/22 02:30:16;;;;;;;21.10;5.30;;;3.70;92.60;;;;;;5071191;28;20036;-77
2021/03/22 02:33:03;;;;;;;21.33;6.00;;;3.70;92.90;;;;;;5073359;28;20031;-77
2021/03/22 02:35:36;;;;;;;19.37;6.27;;;3.70;93.00;;;;;;5062095;28;20043;-77
2021/03/22 02:38:25;;;;;;;29.10;5.00;;;3.70;93.20;;;;;;5054212;28;20104;-73
2021/03/22 02:40:56;;;;;;;29.03;6.37;;;3.70;93.20;;;;;;5073778;28;20278;-73
2021/03/22 02:43:22;;;;;;;25.37;6.13;;;3.70;93.20;;;;;;5074393;28;20025;-73
2021/03/22 02:45:48;;;;;;;25.47;5.87;;;3.80;93.30;;;;;;5072716;28;20032;-73
2021/03/22 02:48:25;;;;;;;24.43;6.17;;;3.90;93.50;;;;;;5069945;28;20494;-73
2021/03/22 02:51:06;;;;;;;25.93;6.77;;;3.90;93.60;;;;;;5051895;28;20091;-73
2021/03/22 02:53:53;;;;;;;25.40;6.40;;;4.00;93.80;;;;;;5052810;28;20511;-73
2021/03/22 02:56:32;;;;;;;22.67;5.60;;;4.00;93.90;;;;;;5054110;28;20083;-72
2021/03/22 02:59:24;;;;;;;22.57;6.67;;;4.10;94.10;;;;;;5054158;28;20025;-73
2021/03/22 03:02:02;;;;;;;26.07;7.03;;;4.10;94.20;;;;;;5054961;28;20033;-73
2021/03/22 03:04:30;;;;;;;26.43;6.80;;;4.20;94.20;;;;;;5073773;28;20032;-73
2021/03/22 03:06:59;;;;;;;26.17;6.47;;;4.20;94.20;;;;;;5072943;28;20032;-73
2021/03/22 03:09:43;;;;;;;29.03;7.53;;;4.20;94.20;;;;;;5073693;28;20035;-73
2021/03/22 03:12:19;;;;;;;21.83;5.63;;;4.30;94.20;;;;;;5072765;28;20108;-73
2021/03/22 03:14:48;;;;;;;23.53;7.37;;;4.30;94.40;;;;;;5072198;28;20361;-73
2021/03/22 03:17:15;;;;;;;26.53;8.00;;;4.40;94.50;;;;;;5073603;28;20086;-73
2021/03/22 03:19:40;;;;;;;26.87;7.50;;;4.40;94.40;;;;;;5073588;28;20111;-73
2021/03/22 03:22:07;;;;;;;19.37;6.53;;;4.50;94.30;;;;;;5073741;28;20111;-73
2021/03/22 03:24:35;;;;;;;24.50;6.70;;;4.50;94.20;;;;;;5072735;28;20044;-73
2021/03/22 03:27:01;;;;;;;19.17;5.70;;;4.50;94.10;;;;;;5073536;28;20035;-73
2021/03/22 03:29:26;;;;;;;24.23;6.77;;;4.50;94.00;;;;;;5073643;28;20376;-73
2021/03/22 03:31:52;;;;;;;26.30;6.77;;;4.60;94.10;;;;;;5039337;28;20075;-73
2021/03/22 03:34:18;;;;;;;33.00;7.83;;;4.60;94.00;;;;;;5073463;28;20029;-73
2021/03/22 03:36:43;;;;;;;28.47;7.90;;;4.60;94.00;;;;;;5072439;28;20372;-76
2021/03/22 03:39:09;;;;;;;27.20;8.43;;;4.70;94.10;;;;;;5055718;28;20021;-77
2021/03/22 03:41:36;;;;;;;25.57;7.33;;;4.70;94.30;;;;;;5072889;28;20108;-77
2021/03/22 03:44:05;;;;;;;20.53;7.13;;;4.70;93.90;;;;;;5073727;28;20051;-77
2021/03/22 03:46:31;;;;;;;27.33;6.70;;;4.80;93.80;;;;;;5073399;28;20070;-77
2021/03/22 03:48:57;;;;;;;29.60;7.30;;;4.80;93.70;;;;;;5072050;28;20056;-77
2021/03/22 03:51:22;;;;;;;35.40;8.73;;;4.80;93.80;;;;;;5072212;28;20032;-77
2021/03/22 03:53:48;;;;;;;31.73;8.27;;;4.80;93.70;;;;;;5073305;28;20529;-77
2021/03/22 03:56:14;;;;;;;26.30;7.53;;;4.90;93.80;;;;;;5073631;28;20032;-77
2021/03/22 03:58:39;;;;;;;19.50;6.97;;;4.90;93.70;;;;;;5073456;28;20480;-77
2021/03/22 04:01:05;;;;;;;22.30;7.83;;;4.90;93.60;;;;;;5073319;28;20111;-77
2021/03/22 04:03:34;;;;;;;35.00;9.00;;;5.00;93.60;;;;;;5076285;28;20025;-77
2021/03/22 04:06:11;;;;;;;36.00;8.33;;;5.00;93.70;;;;;;5076278;28;20107;-77
2021/03/22 04:08:40;;;;;;;25.87;7.80;;;5.00;93.60;;;;;;5077390;28;20033;-77
2021/03/22 04:11:10;;;;;;;28.57;7.90;;;5.00;93.60;;;;;;5077477;28;20029;-77
2021/03/22 04:13:37;;;;;;;32.57;9.30;;;5.10;93.50;;;;;;5077325;28;20028;-77
2021/03/22 04:16:05;;;;;;;22.17;7.10;;;5.10;93.60;;;;;;5075818;28;20064;-77
2021/03/22 04:18:32;;;;;;;31.87;7.77;;;5.10;93.50;;;;;;5077343;28;20055;-77
2021/03/22 04:20:58;;;;;;;26.90;8.27;;;5.10;93.50;;;;;;5077018;28;20029;-77
2021/03/22 04:23:24;;;;;;;27.93;7.87;;;5.20;93.60;;;;;;5060746;28;20132;-76
2021/03/22 04:25:49;;;;;;;22.83;7.90;;;5.10;93.60;;;;;;5056153;28;20463;-77
2021/03/22 04:28:15;;;;;;;34.30;9.10;;;5.20;93.70;;;;;;5056972;28;20030;-77
2021/03/22 04:30:40;;;;;;;26.97;7.90;;;5.20;93.70;;;;;;5062258;28;20029;-77
2021/03/22 04:33:06;;;;;;;24.97;6.77;;;5.20;93.50;;;;;;5077050;28;20092;-78
2021/03/22 04:35:32;;;;;;;25.70;7.53;;;5.20;93.50;;;;;;5058600;28;20472;-78
2021/03/22 04:37:58;;;;;;;28.40;7.83;;;5.20;93.60;;;;;;5075477;28;20033;-77
2021/03/22 04:40:27;;;;;;;24.23;7.93;;;5.20;93.60;;;;;;5057168;28;20087;-78
2021/03/22 04:42:52;;;;;;;28.33;8.50;;;5.20;93.60;;;;;;5056419;28;20053;-78
2021/03/22 04:45:22;;;;;;;41.30;9.37;;;5.30;93.70;;;;;;5055110;28;20456;-78
2021/03/22 04:47:47;;;;;;;34.13;9.13;;;5.30;93.80;;;;;;5055207;28;20095;-78
2021/03/22 04:50:14;;;;;;;29.57;8.73;;;5.30;93.80;;;;;;5055441;28;20029;-78
2021/03/22 04:52:40;;;;;;;34.57;8.77;;;5.30;93.80;;;;;;5055199;28;20098;-78
2021/03/22 04:55:07;;;;;;;32.20;7.37;;;5.30;93.70;;;;;;5063171;28;20531;-78
2021/03/22 04:57:34;;;;;;;31.80;8.13;;;5.30;93.70;;;;;;5074546;28;20380;-78
2021/03/22 05:00:01;;;;;;;25.37;7.87;;;5.30;93.80;;;;;;5076196;28;20032;-74
2021/03/22 05:02:26;;;;;;;25.50;7.67;;;5.30;93.80;;;;;;5073455;28;20066;-74
2021/03/22 05:04:52;;;;;;;25.60;7.13;;;5.30;93.80;;;;;;5074963;28;20075;-74
2021/03/22 05:07:19;;;;;;;20.90;6.30;;;5.40;94.00;;;;;;5073848;28;20036;-74
2021/03/22 05:09:45;;;;;;;23.47;7.10;;;5.40;94.00;;;;;;5058339;28;20031;-74
2021/03/22 05:12:12;;;;;;;17.67;5.23;;;5.40;94.00;;;;;;5074179;28;20036;-77
2021/03/22 05:14:38;;;;;;;20.67;5.77;;;5.40;93.90;;;;;;5073573;28;20029;-77
2021/03/22 05:17:04;;;;;;;21.53;5.07;;;5.40;94.00;;;;;;5074577;28;20452;-78
2021/03/22 05:19:30;;;;;;;17.60;5.50;;;5.40;93.90;;;;;;5074731;28;20033;-78
2021/03/22 05:21:57;;;;;;;19.30;5.30;;;5.50;93.90;;;;;;5074851;28;20383;-76
2021/03/22 05:24:24;;;;;;;19.93;5.30;;;5.50;93.90;;;;;;5076270;28;20028;-76
2021/03/22 05:26:50;;;;;;;13.47;4.43;;;5.60;93.90;;;;;;5075890;28;20044;-76
2021/03/22 05:29:16;;;;;;;14.33;3.77;;;5.50;93.90;;;;;;5058347;28;20493;-77
2021/03/22 05:31:42;;;;;;;19.70;6.30;;;5.50;93.80;;;;;;5038197;28;20044;-76
2021/03/22 05:34:07;;;;;;;15.10;4.80;;;5.50;93.80;;;;;;5055573;28;20073;-76
2021/03/22 05:36:33;;;;;;;19.33;4.90;;;5.50;93.70;;;;;;5055526;28;20037;-77
2021/03/22 05:38:58;;;;;;;19.57;4.60;;;5.50;93.60;;;;;;5055697;28;20037;-77
2021/03/22 05:41:27;;;;;;;18.60;4.40;;;5.60;93.70;;;;;;5055554;28;20037;-77
2021/03/22 05:43:55;;;;;;;15.60;4.57;;;5.60;93.60;;;;;;5073613;28;20025;-77
2021/03/22 05:46:48;;;;;;;12.93;3.83;;;5.70;93.60;;;;;;5075426;28;20464;-77
2021/03/22 05:49:22;;;;;;;17.60;4.13;;;5.60;93.50;;;;;;5074409;28;20048;-77
2021/03/22 05:52:21;;;;;;;16.30;3.33;;;5.60;93.60;;;;;;5075302;28;20082;-76
2021/03/22 05:55:24;;;;;;;14.17;3.70;;;5.60;93.50;;;;;;5075447;28;20027;-76
2021/03/22 05:57:55;;;;;;;13.30;3.93;;;5.70;93.50;;;;;;5073658;28;20048;-76
2021/03/22 06:00:35;;;;;;;10.73;3.00;;;5.60;93.40;;;;;;5074997;28;20024;-76
2021/03/22 06:03:22;;;;;;;11.10;3.03;;;5.70;93.40;;;;;;5075104;28;20060;-76
2021/03/22 06:06:10;;;;;;;16.73;3.30;;;5.70;93.30;;;;;;5075277;28;20028;-76
2021/03/22 06:08:52;;;;;;;14.03;2.60;;;5.70;93.30;;;;;;5074912;28;20021;-76
2021/03/22 06:11:27;;;;;;;11.53;2.50;;;5.70;93.30;;;;;;5075039;28;20017;-76
2021/03/22 06:14:19;;;;;;;11.07;2.33;;;5.70;93.20;;;;;;5073858;28;20025;-73
2021/03/22 06:16:48;;;;;;;10.80;2.37;;;5.80;93.20;;;;;;5074129;28;20157;-73
2021/03/22 06:19:17;;;;;;;9.93;1.93;;;5.80;93.20;;;;;;5073594;28;20052;-73
2021/03/22 06:21:47;;;;;;;10.30;2.07;;;5.80;93.10;;;;;;5053292;28;20048;-72
2021/03/22 06:24:19;;;;;;;10.70;2.60;;;5.80;93.10;;;;;;5059876;28;20070;-74
2021/03/22 06:26:50;;;;;;;9.10;2.23;;;5.80;93.10;;;;;;5074704;28;20028;-72
2021/03/22 06:29:28;;;;;;;6.33;2.00;;;5.80;93.10;;;;;;5073042;28;20384;-73
2021/03/22 06:32:04;;;;;;;7.70;2.23;;;5.90;93.10;;;;;;5064282;28;20025;-73
2021/03/22 06:34:42;;;;;;;9.97;2.10;;;5.80;93.00;;;;;;5063193;28;20099;-73
2021/03/22 06:37:11;;;;;;;11.10;2.57;;;5.90;93.00;;;;;;5059499;28;20025;-73
2021/03/22 06:39:37;;;;;;;8.93;2.50;;;5.90;93.30;;;;;;5063761;28;20036;-73
2021/03/22 06:42:23;;;;;;;8.40;1.90;;;5.90;93.00;;;;;;5065582;28;20372;-73
2021/03/22 06:44:49;;;;;;;12.97;2.07;;;5.90;93.00;;;;;;5066908;28;20077;-72
2021/03/22 06:47:15;;;;;;;9.07;2.07;;;6.00;93.00;;;;;;5068898;28;20017;-72
2021/03/22 06:49:47;;;;;;;9.70;2.00;;;6.00;93.00;;;;;;5064091;28;20446;-72
2021/03/22 06:52:16;;;;;;;6.53;1.80;;;6.00;93.00;;;;;;5067197;28;20020;-72
2021/03/22 06:54:49;;;;;;;7.40;1.67;;;6.00;93.00;;;;;;5058145;28;20464;-73
2021/03/22 06:57:20;;;;;;;8.33;1.60;;;6.00;93.00;;;;;;5055988;28;20074;-73
2021/03/22 07:00:10;;;;;;;12.43;2.17;;;6.10;93.00;;;;;;5072436;28;20016;-72
2021/03/22 07:02:48;;;;;;;7.50;1.87;;;6.10;93.00;;;;;;5056018;28;20439;-72
2021/03/22 07:05:19;;;;;;;10.13;1.83;;;6.10;92.90;;;;;;5069837;28;20047;-75
2021/03/22 07:08:00;;;;;;;6.17;1.53;;;6.20;92.80;;;;;;5055559;28;20427;-76
2021/03/22 07:10:36;;;;;;;9.57;2.30;;;6.20;92.80;;;;;;5067818;28;20024;-78
2021/03/22 07:13:22;;;;;;;9.23;1.90;;;6.20;92.70;;;;;;5071310;28;20017;-77
2021/03/22 07:15:50;;;;;;;10.20;1.83;;;6.30;92.70;;;;;;5064734;28;20100;-76
2021/03/22 07:18:22;;;;;;;5.47;1.90;;;6.30;92.70;;;;;;5067221;28;20033;-76
2021/03/22 07:21:07;;;;;;;11.97;1.70;;;6.30;92.70;;;;;;5072069;28;20017;-77
2021/03/22 07:23:52;;;;;;;9.43;1.80;;;6.30;92.60;;;;;;5062147;28;20027;-78
2021/03/22 07:26:17;;;;;;;8.73;1.95;;;6.30;92.50;;;;;;5072626;28;20036;-77
2021/03/22 07:28:51;;;;;;;8.70;1.33;;;6.30;92.50;;;;;;5073334;28;20022;-77
2021/03/22 07:31:53;;;;;;;6.15;1.60;;;6.30;92.40;;;;;;5053640;28;20021;-77
2021/03/22 07:34:42;;;;;;;5.80;1.17;;;6.30;92.40;;;;;;5062526;28;20028;-77
2021/03/22 07:37:16;;;;;;;9.00;1.40;;;6.30;92.40;;;;;;5066588;28;20050;-77
2021/03/22 07:39:54;;;;;;;6.43;1.10;;;6.30;92.30;;;;;;5073520;28;20073;-77
2021/03/22 07:42:34;;;;;;;6.67;1.03;;;6.40;92.30;;;;;;5073230;28;20478;-77
2021/03/22 07:45:20;;;;;;;4.77;1.10;;;6.40;92.20;;;;;;5071944;28;20479;-73
2021/03/22 07:48:00;;;;;;;6.83;1.03;;;6.40;92.20;;;;;;5063304;28;20024;-74
2021/03/22 07:50:31;;;;;;;5.30;0.93;;;6.40;92.10;;;;;;5073145;28;20025;-73
2021/03/22 07:53:15;;;;;;;4.27;1.00;;;6.50;92.10;;;;;;5069796;28;20024;-72
2021/03/22 07:55:53;;;;;;;6.78;0.88;;;6.50;92.10;;;;;;5058385;28;20423;-73
2021/03/22 07:58:24;;;;;;;3.73;0.90;;;6.50;92.10;;;;;;5060539;28;20032;-73
2021/03/22 08:01:07;;;;;;;3.80;1.20;;;6.60;92.10;;;;;;5062958;28;20031;-73
2021/03/22 08:04:10;;;;;;;4.57;0.80;;;6.70;92.20;;;;;;5059802;28;20049;-73
2021/03/22 08:07:07;;;;;;;6.07;1.20;;;6.80;92.20;;;;;;5061825;28;20495;-73
2021/03/22 08:10:15;;;;;;;5.33;1.13;;;6.90;92.10;;;;;;5059489;28;20031;-72
2021/03/22 08:12:54;;;;;;;2.90;0.80;;;6.90;92.00;;;;;;5064292;28;20029;-73
2021/03/22 08:16:02;;;;;;;4.00;0.83;;;7.00;91.90;;;;;;5065429;28;20028;-73
2021/03/22 08:18:32;;;;;;;5.77;0.97;;;6.90;91.90;;;;;;5070709;28;20111;-73
2021/03/22 08:21:07;;;;;;;5.37;0.90;;;7.10;91.80;;;;;;5085166;28;20036;-72
2021/03/22 08:23:54;;;;;;;8.30;0.80;;;7.10;91.80;;;;;;5071851;28;20064;-73
2021/03/22 08:26:45;;;;;;;5.77;0.87;;;7.10;91.70;;;;;;5059408;28;20025;-73
2021/03/22 08:29:24;;;;;;;4.40;0.70;;;7.10;91.70;;;;;;5065689;28;20116;-73
2021/03/22 08:32:05;;;;;;;3.33;1.00;;;7.10;91.70;;;;;;5072002;28;20024;-73
2021/03/22 08:34:54;;;;;;;4.67;1.10;;;7.20;91.80;;;;;;5071196;28;20025;-73
2021/03/22 08:37:22;;;;;;;5.30;1.17;;;7.30;91.80;;;;;;5072273;28;20040;-73
2021/03/22 08:40:26;;;;;;;2.90;0.80;;;7.40;92.10;;;;;;5061758;28;20029;-73
2021/03/22 08:42:58;;;;;;;5.73;1.00;;;7.60;91.90;;;;;;5060136;28;20366;-73
2021/03/22 08:45:55;;;;;;;3.77;0.70;;;7.70;91.90;;;;;;5068250;28;20036;-73
2021/03/22 08:48:28;;;;;;;4.40;0.90;;;7.90;91.80;;;;;;5052375;28;20048;-73
2021/03/22 08:50:57;;;;;;;6.25;1.25;;;8.00;91.50;;;;;;5058262;28;20101;-73
2021/03/22 08:53:26;;;;;;;6.30;1.30;;;8.00;91.40;;;;;;5054691;28;20017;-73
2021/03/22 08:55:59;;;;;;;7.53;1.40;;;8.10;91.30;;;;;;5071700;28;20070;-76
2021/03/22 08:58:33;;;;;;;5.55;1.88;;;8.20;90.80;;;;;;5065371;28;20020;-77
2021/03/22 09:01:08;;;;;;;6.97;1.50;;;8.20;90.70;;;;;;5074162;28;20033;-77
2021/03/22 09:03:39;;;;;;;6.37;1.27;;;8.30;90.80;;;;;;5075604;28;20527;-77
2021/03/22 09:06:20;;;;;;;5.67;1.07;;;8.40;90.90;;;;;;5075894;28;20099;-77
2021/03/22 09:08:54;;;;;;;6.17;1.33;;;8.50;90.80;;;;;;5074230;28;20029;-77
2021/03/22 09:11:23;;;;;;;7.03;1.53;;;8.60;90.40;;;;;;5075822;28;20508;-77
2021/03/22 09:13:59;;;;;;;4.77;1.20;;;8.70;90.20;;;;;;5072877;28;20546;-77
2021/03/22 09:16:25;;;;;;;7.40;1.80;;;8.70;90.20;;;;;;5060103;28;20033;-77
2021/03/22 09:19:25;;;;;;;8.67;2.00;;;8.70;90.00;;;;;;5055585;28;20032;-77
2021/03/22 09:22:00;;;;;;;7.80;1.20;;;9.00;90.10;;;;;;5073302;28;20468;-77
2021/03/22 09:24:42;;;;;;;5.50;1.60;;;9.10;89.60;;;;;;5073874;28;20503;-77
2021/03/22 09:27:13;;;;;;;4.27;1.13;;;9.10;88.90;;;;;;5075402;28;20107;-77
2021/03/22 09:29:48;;;;;;;8.20;1.57;;;9.10;87.50;;;;;;5056361;28;20048;-77
2021/03/22 09:32:37;;;;;;;7.57;1.13;;;9.10;86.50;;;;;;5072639;28;20302;-77
2021/03/22 09:35:05;;;;;;;8.80;2.30;;;8.90;86.30;;;;;;5074604;28;20047;-73
2021/03/22 09:37:50;;;;;;;8.70;1.90;;;8.90;86.10;;;;;;5075070;28;20417;-73
2021/03/22 09:40:19;;;;;;;5.03;1.13;;;8.80;85.50;;;;;;5074166;28;20039;-73
2021/03/22 09:43:08;;;;;;;5.57;0.93;;;8.70;85.50;;;;;;5066209;28;20067;-73
2021/03/22 09:45:55;;;;;;;4.97;0.80;;;8.60;85.70;;;;;;5068107;28;20033;-73
2021/03/22 09:48:30;;;;;;;7.70;1.40;;;8.50;85.60;;;;;;5062833;28;20045;-73
2021/03/22 09:51:03;;;;;;;3.10;0.90;;;8.60;85.90;;;;;;5065319;28;20460;-74
2021/03/22 09:53:53;;;;;;;4.60;1.00;;;8.60;86.00;;;;;;5065590;28;20032;-74
2021/03/22 09:56:27;;;;;;;3.97;0.70;;;8.60;86.10;;;;;;5060362;28;20447;-73
2021/03/22 09:58:53;;;;;;;5.82;0.88;;;8.70;86.20;;;;;;5054041;28;20021;-74
2021/03/22 10:01:25;;;;;;;3.70;0.80;;;8.80;85.70;;;;;;5064451;28;20016;-74
2021/03/22 10:04:28;;;;;;;4.30;0.80;;;8.90;85.90;;;;;;5057453;28;20102;-74
2021/03/22 10:07:17;;;;;;;6.80;0.70;;;8.90;85.30;;;;;;5053936;28;20067;-73
2021/03/22 10:10:01;;;;;;;4.73;0.70;;;9.10;84.70;;;;;;5055436;28;20025;-74
2021/03/22 10:12:41;;;;;;;1.48;0.50;;;9.30;85.20;;;;;;5055372;28;20025;-74
2021/03/22 10:15:13;;;;;;;3.40;0.60;;;9.60;85.10;;;;;;5072206;28;20032;-74
2021/03/22 10:17:48;;;;;;;4.13;0.50;;;10.00;85.60;;;;;;5075180;28;20045;-74
2021/03/22 10:20:38;;;;;;;2.53;0.60;;;10.60;86.20;;;;;;5058183;28;20409;-75
2021/03/22 10:23:17;;;;;;;4.05;0.60;;;11.40;86.20;;;;;;5053595;28;20120;-75
2021/03/22 10:25:45;;;;;;;2.60;0.40;;;12.40;86.30;;;;;;5054344;28;20033;-74
2021/03/22 10:28:25;;;;;;;2.10;0.30;;;13.00;85.10;;;;;;5064260;28;20055;-75
2021/03/22 10:31:16;;;;;;;1.67;0.50;;;13.60;81.90;;;;;;5074530;28;20020;-73
2021/03/22 10:34:18;;;;;;;1.95;0.43;;;13.70;79.80;;;;;;5070021;28;20052;-72
2021/03/22 10:36:44;;;;;;;1.65;0.30;;;13.60;75.90;;;;;;5062772;28;20025;-74
2021/03/22 10:39:46;;;;;;;3.42;0.40;;;13.30;72.50;;;;;;5062897;28;20120;-71
2021/03/22 10:42:35;;;;;;;3.42;0.50;;;12.80;69.00;;;;;;5050574;28;20029;-74
2021/03/22 10:45:01;;;;;;;2.90;0.47;;;12.30;67.60;;;;;;5054474;28;20053;-73
2021/03/22 10:47:30;;;;;;;2.58;0.80;;;11.90;68.10;;;;;;5053323;28;20021;-73
2021/03/22 10:50:24;;;;;;;2.23;0.50;;;11.60;68.60;;;;;;5053960;28;20037;-74
2021/03/22 10:53:07;;;;;;;2.50;0.30;;;11.30;69.50;;;;;;5072884;28;20032;-74
2021/03/22 10:55:33;;;;;;;1.60;0.40;;;11.20;70.10;;;;;;5073752;28;20025;-74
2021/03/22 10:58:01;;;;;;;2.70;0.47;;;10.90;70.60;;;;;;5073763;28;20036;-74
2021/03/22 11:00:31;;;;;;;2.97;0.47;;;10.80;71.00;;;;;;5072391;28;20021;-74
2021/03/22 11:02:59;;;;;;;4.30;0.40;;;10.80;71.50;;;;;;5073796;28;20047;-74
2021/03/22 11:05:42;;;;;;;1.47;0.50;;;10.80;71.60;;;;;;5073389;28;20048;-74
2021/03/22 11:08:28;;;;;;;3.33;0.40;;;10.70;71.50;;;;;;5071856;28;20028;-74
2021/03/22 11:11:04;;;;;;;3.37;0.63;;;10.60;71.60;;;;;;5064395;28;20024;-73
2021/03/22 11:13:32;;;;;;;3.67;0.60;;;10.60;71.80;;;;;;5062472;28;20025;-73
2021/03/22 11:15:58;;;;;;;2.63;0.50;;;10.60;70.90;;;;;;5065270;28;20088;-74
2021/03/22 11:18:25;;;;;;;1.80;0.43;;;10.60;70.60;;;;;;5067535;28;20090;-75
2021/03/22 11:20:56;;;;;;;3.00;0.60;;;10.60;70.90;;;;;;5069053;28;20031;-74
2021/03/22 11:23:30;;;;;;;3.43;0.50;;;10.50;71.20;;;;;;5058209;28;20025;-74
2021/03/22 11:26:15;;;;;;;2.37;0.50;;;10.50;70.70;;;;;;5058702;28;20025;-74
2021/03/22 11:28:40;;;;;;;;;;;10.50;70.40;;;;;;5064618;28;20058;-74
2021/03/22 11:31:28;;;;;;;3.87;0.60;;;10.40;70.20;;;;;;5062195;28;19978;-74
2021/03/22 11:34:14;;;;;;;3.87;0.47;;;10.30;70.40;;;;;;5061570;28;20031;-74
2021/03/22 11:36:45;;;;;;;1.10;0.40;;;10.30;70.80;;;;;;5063321;28;20135;-74
2021/03/22 11:39:28;;;;;;;2.57;0.63;;;10.20;71.00;;;;;;5056830;28;20082;-74
2021/03/22 11:41:53;;;;;;;2.97;0.70;;;10.10;70.60;;;;;;5053297;28;20029;-74
2021/03/22 11:44:33;;;;;;;3.37;0.60;;;10.10;70.80;;;;;;5053120;28;20036;-75
2021/03/22 11:47:35;;;;;;;2.87;0.40;;;10.10;71.10;;;;;;5052158;28;20017;-73
2021/03/22 11:50:03;;;;;;;3.03;0.40;;;10.10;71.00;;;;;;5051883;28;20041;-74
2021/03/22 11:52:31;;;;;;;2.57;0.50;;;10.10;70.70;;;;;;5057756;28;20025;-74
2021/03/22 11:55:00;;;;;;;3.57;0.53;;;10.10;70.80;;;;;;5055085;28;20155;-74
2021/03/22 11:57:27;;;;;;;2.80;0.60;;;10.10;71.00;;;;;;5065725;28;20025;-74
2021/03/22 11:59:58;;;;;;;2.30;0.37;;;10.10;71.30;;;;;;5059845;28;20485;-74
2021/03/22 12:02:43;;;;;;;1.23;0.43;;;10.10;71.40;;;;;;5053158;28;20108;-74
2021/03/22 12:05:23;;;;;;;;;;;10.20;71.60;;;;;;5051943;28;20033;-74
2021/03/22 12:07:49;;;;;;;1.70;0.47;;;10.20;71.60;;;;;;5051937;28;19909;-74
2021/03/22 12:10:30;;;;;;;2.27;0.40;;;10.20;71.20;;;;;;5051881;28;20159;-74
2021/03/22 12:12:58;;;;;;;1.90;0.50;;;10.20;71.50;;;;;;5058168;28;20017;-74
2021/03/22 12:15:26;;;;;;;3.33;0.77;;;10.20;71.20;;;;;;5073020;28;20111;-74
2021/03/22 12:18:06;;;;;;;5.43;0.53;;;10.20;71.10;;;;;;5055274;28;20021;-74
2021/03/22 12:20:34;;;;;;;4.50;0.50;;;10.20;71.60;;;;;;5071778;28;20025;-75
2021/03/22 12:22:59;;;;;;;2.50;0.40;;;10.30;71.60;;;;;;5072493;28;20029;-74
2021/03/22 12:25:30;;;;;;;2.23;0.50;;;10.30;71.70;;;;;;5076967;28;20031;-74
2021/03/22 12:27:57;;;;;;;4.80;0.40;;;10.40;71.80;;;;;;5075548;28;20016;-74
2021/03/22 12:30:24;;;;;;;2.90;0.40;;;10.40;71.80;;;;;;5075023;28;20043;-74
2021/03/22 12:32:50;;;;;;;2.30;0.50;;;10.50;71.60;;;;;;5076100;28;20052;-74
2021/03/22 12:35:25;;;;;;;3.63;0.30;;;10.50;71.50;;;;;;5075852;28;20052;-74
2021/03/22 12:37:51;;;;;;;2.63;0.50;;;10.60;71.60;;;;;;5076955;28;20017;-74
2021/03/22 12:40:17;;;;;;;4.07;0.30;;;10.60;71.40;;;;;;5074968;28;20032;-77
2021/03/22 12:42:45;;;;;;;2.37;0.40;;;10.70;71.00;;;;;;5075427;28;20056;-77
2021/03/22 12:45:25;;;;;;;1.40;0.40;;;10.70;70.60;;;;;;5060765;28;20029;-78
2021/03/22 12:47:51;;;;;;;1.27;0.40;;;10.80;70.20;;;;;;5056458;28;20091;-77
2021/03/22 12:50:26;;;;;;;3.23;0.50;;;10.90;69.20;;;;;;5056496;28;20033;-77
2021/03/22 12:52:52;;;;;;;2.67;0.30;;;10.80;68.00;;;;;;5056660;28;20032;-77
2021/03/22 12:55:20;;;;;;;1.67;0.40;;;10.80;68.30;;;;;;5056397;28;20041;-78
2021/03/22 12:57:45;;;;;;;2.53;0.50;;;10.80;68.40;;;;;;5056510;28;20384;-77
2021/03/22 13:00:13;;;;;;;2.97;0.50;;;10.80;66.60;;;;;;5055505;28;20021;-78
2021/03/22 13:02:39;;;;;;;2.53;0.30;;;10.80;65.60;;;;;;5066000;28;20424;-78
2021/03/22 13:05:24;;;;;;;4.97;0.40;;;10.80;66.00;;;;;;5073296;28;20052;-78
2021/03/22 13:07:51;;;;;;;2.40;0.30;;;10.80;66.20;;;;;;5057788;28;20020;-77
2021/03/22 13:10:19;;;;;;;3.83;0.50;;;10.80;66.20;;;;;;5055000;28;20112;-77
2021/03/22 13:12:45;;;;;;;3.40;0.67;;;10.90;65.30;;;;;;5058949;28;20017;-77
2021/03/22 13:15:41;;;;;;;1.87;0.40;;;10.80;64.70;;;;;;5056198;28;20086;-77
2021/03/22 13:18:34;;;;;;;1.83;0.40;;;10.80;64.50;;;;;;5060066;28;20123;-77
2021/03/22 13:21:01;;;;;;;2.67;0.83;;;10.90;64.10;;;;;;5075304;28;20380;-77
2021/03/22 13:23:29;;;;;;;2.23;0.37;;;10.90;64.30;;;;;;5061335;28;20031;-78